createdAt,value
2019-03-08T00:00:14.328Z,997.57
2019-03-08T00:01:14.275Z,997.56
2019-03-08T00:02:14.268Z,997.54
2019-03-08T00:03:14.271Z,997.61
2019-03-08T00:04:14.254Z,997.58
2019-03-08T00:05:14.249Z,997.64
2019-03-08T00:06:14.246Z,997.64
2019-03-08T00:07:14.223Z,997.72
2019-03-08T00:08:14.217Z,997.67
2019-03-08T00:09:14.212Z,997.67
2019-03-08T00:10:14.203Z,997.72
2019-03-08T00:11:14.206Z,997.75
2019-03-08T00:12:14.186Z,997.68
2019-03-08T00:13:14.186Z,997.60
2019-03-08T00:14:14.169Z,997.58
2019-03-08T00:15:14.161Z,997.70
2019-03-08T00:16:14.146Z,997.64
2019-03-08T00:17:14.148Z,997.68
2019-03-08T00:18:14.132Z,997.75
2019-03-08T00:19:14.128Z,997.71
2019-03-08T00:20:14.122Z,997.74
2019-03-08T00:21:14.111Z,997.69
2019-03-08T00:22:14.113Z,997.76
2019-03-08T00:23:14.097Z,997.78
2019-03-08T00:24:14.087Z,997.78
2019-03-08T00:25:14.077Z,997.82
2019-03-08T00:26:14.069Z,997.81
2019-03-08T00:27:14.060Z,997.78
2019-03-08T00:28:14.056Z,997.75
2019-03-08T00:29:14.043Z,997.72
2019-03-08T00:30:14.031Z,997.70
2019-03-08T00:31:14.031Z,997.72
2019-03-08T00:32:14.028Z,997.77
2019-03-08T00:33:14.011Z,997.80
2019-03-08T00:34:14.004Z,997.78
2019-03-08T00:35:14.002Z,997.79
2019-03-08T00:36:13.992Z,997.75
2019-03-08T00:37:13.981Z,997.74
2019-03-08T00:38:13.970Z,997.77
2019-03-08T00:39:13.959Z,997.82
2019-03-08T00:40:13.953Z,997.80
2019-03-08T00:41:13.955Z,997.89
2019-03-08T00:42:13.937Z,997.85
2019-03-08T00:43:13.929Z,997.94
2019-03-08T00:44:13.922Z,997.86
2019-03-08T00:45:13.913Z,997.93
2019-03-08T00:46:13.912Z,997.96
2019-03-08T00:47:13.901Z,997.99
2019-03-08T00:48:13.891Z,998.03
2019-03-08T00:49:13.881Z,998.02
2019-03-08T00:50:13.887Z,998.05
2019-03-08T00:51:13.862Z,998.07
2019-03-08T00:52:13.856Z,997.98
2019-03-08T00:53:15.670Z,998.08
2019-03-08T00:54:13.839Z,998.13
2019-03-08T00:55:13.836Z,998.14
2019-03-08T00:56:13.821Z,998.16
2019-03-08T00:57:13.814Z,998.17
2019-03-08T00:58:13.806Z,998.14
2019-03-08T00:59:14.574Z,998.23
2019-03-08T01:00:14.583Z,998.21
2019-03-08T01:01:13.787Z,998.29
2019-03-08T01:02:13.777Z,998.22
2019-03-08T01:03:13.806Z,998.24
2019-03-08T01:04:13.763Z,998.25
2019-03-08T01:05:13.750Z,998.28
2019-03-08T01:06:13.740Z,998.29
2019-03-08T01:07:13.737Z,998.30
2019-03-08T01:08:13.727Z,998.32
2019-03-08T01:09:13.722Z,998.37
2019-03-08T01:10:13.706Z,998.33
2019-03-08T01:11:14.577Z,998.43
2019-03-08T01:12:13.695Z,998.37
2019-03-08T01:13:13.689Z,998.37
2019-03-08T01:14:13.706Z,998.38
2019-03-08T01:15:13.670Z,998.42
2019-03-08T01:16:13.672Z,998.40
2019-03-08T01:17:13.652Z,998.36
2019-03-08T01:18:14.582Z,998.45
2019-03-08T01:19:13.629Z,998.44
2019-03-08T01:20:13.645Z,998.42
2019-03-08T01:21:13.638Z,998.40
2019-03-08T01:22:13.610Z,998.43
2019-03-08T01:23:13.609Z,998.49
2019-03-08T01:24:13.624Z,998.50
2019-03-08T01:25:13.601Z,998.44
2019-03-08T01:26:13.592Z,998.50
2019-03-08T01:27:13.581Z,998.51
2019-03-08T01:28:13.574Z,998.47
2019-03-08T01:29:13.560Z,998.46
2019-03-08T01:30:13.549Z,998.49
2019-03-08T01:31:13.543Z,998.51
2019-03-08T01:32:13.529Z,998.49
2019-03-08T01:33:13.541Z,998.53
2019-03-08T01:34:13.524Z,998.55
2019-03-08T01:35:13.518Z,998.56
2019-03-08T01:36:13.517Z,998.53
2019-03-08T01:37:13.500Z,998.56
2019-03-08T01:38:13.482Z,998.58
2019-03-08T01:39:13.496Z,998.61
2019-03-08T01:40:13.473Z,998.60
2019-03-08T01:41:13.482Z,998.63
2019-03-08T01:42:13.457Z,998.61
2019-03-08T01:43:13.443Z,998.63
2019-03-08T01:44:13.440Z,998.66
2019-03-08T01:45:13.432Z,998.70
2019-03-08T01:46:13.439Z,998.71
2019-03-08T01:47:13.417Z,998.65
2019-03-08T01:48:13.413Z,998.65
2019-03-08T01:49:13.408Z,998.69
2019-03-08T01:50:13.404Z,998.79
2019-03-08T01:51:13.377Z,998.68
2019-03-08T01:52:13.387Z,998.81
2019-03-08T01:53:13.372Z,998.75
2019-03-08T01:54:13.373Z,998.77
2019-03-08T01:55:13.348Z,998.79
2019-03-08T01:56:13.346Z,998.86
2019-03-08T01:57:13.344Z,998.77
2019-03-08T01:58:13.342Z,998.80
2019-03-08T01:59:13.325Z,998.83
2019-03-08T02:00:13.320Z,998.76
2019-03-08T02:01:13.305Z,998.87
2019-03-08T02:02:13.292Z,998.73
2019-03-08T02:03:13.294Z,998.72
2019-03-08T02:04:13.284Z,998.81
2019-03-08T02:05:13.318Z,998.81
2019-03-08T02:06:13.273Z,998.73
2019-03-08T02:07:13.263Z,998.82
2019-03-08T02:08:13.247Z,998.71
2019-03-08T02:09:13.242Z,998.72
2019-03-08T02:10:13.231Z,998.71
2019-03-08T02:11:13.229Z,998.60
2019-03-08T02:12:13.220Z,998.70
2019-03-08T02:13:13.227Z,998.78
2019-03-08T02:14:13.198Z,998.75
2019-03-08T02:15:13.191Z,998.76
2019-03-08T02:16:13.188Z,998.72
2019-03-08T02:17:13.199Z,998.75
2019-03-08T02:18:13.185Z,998.75
2019-03-08T02:19:13.165Z,998.79
2019-03-08T02:20:13.159Z,998.76
2019-03-08T02:21:13.157Z,998.75
2019-03-08T02:22:13.134Z,998.74
2019-03-08T02:23:13.157Z,998.81
2019-03-08T02:24:13.118Z,998.82
2019-03-08T02:25:13.130Z,998.81
2019-03-08T02:26:13.108Z,998.79
2019-03-08T02:27:13.112Z,998.83
2019-03-08T02:28:13.092Z,998.86
2019-03-08T02:29:13.083Z,998.85
2019-03-08T02:30:13.072Z,998.81
2019-03-08T02:31:13.072Z,998.78
2019-03-08T02:32:13.062Z,998.86
2019-03-08T02:33:13.054Z,998.85
2019-03-08T02:34:13.040Z,998.79
2019-03-08T02:35:13.053Z,998.83
2019-03-08T02:36:13.024Z,998.83
2019-03-08T02:37:13.023Z,998.84
2019-03-08T02:38:13.016Z,998.81
2019-03-08T02:39:13.014Z,998.81
2019-03-08T02:40:13.010Z,998.84
2019-03-08T02:41:12.985Z,998.86
2019-03-08T02:42:12.975Z,998.88
2019-03-08T02:43:12.974Z,998.88
2019-03-08T02:44:12.969Z,998.84
2019-03-08T02:45:12.962Z,998.90
2019-03-08T02:46:12.945Z,998.90
2019-03-08T02:47:12.938Z,998.79
2019-03-08T02:48:12.930Z,998.91
2019-03-08T02:49:12.931Z,998.91
2019-03-08T02:50:12.919Z,998.90
2019-03-08T02:51:12.906Z,998.86
2019-03-08T02:52:12.909Z,998.88
2019-03-08T02:53:12.909Z,998.91
2019-03-08T02:54:12.881Z,998.90
2019-03-08T02:55:12.881Z,998.93
2019-03-08T02:56:12.868Z,998.92
2019-03-08T02:57:12.861Z,998.95
2019-03-08T02:58:12.872Z,998.97
2019-03-08T02:59:12.848Z,998.98
2019-03-08T03:00:12.843Z,999.03
2019-03-08T03:01:12.824Z,999.02
2019-03-08T03:02:12.840Z,999.04
2019-03-08T03:03:12.811Z,999.04
2019-03-08T03:04:12.817Z,999.00
2019-03-08T03:05:12.793Z,999.06
2019-03-08T03:06:12.785Z,999.03
2019-03-08T03:07:12.784Z,999.08
2019-03-08T03:08:12.772Z,999.04
2019-03-08T03:09:12.768Z,999.08
2019-03-08T03:10:12.763Z,999.06
2019-03-08T03:11:12.747Z,999.08
2019-03-08T03:12:12.743Z,999.05
2019-03-08T03:13:12.736Z,999.08
2019-03-08T03:14:12.729Z,999.11
2019-03-08T03:15:12.720Z,999.15
2019-03-08T03:16:12.729Z,999.14
2019-03-08T03:17:12.696Z,999.12
2019-03-08T03:18:12.782Z,999.14
2019-03-08T03:19:12.699Z,999.17
2019-03-08T03:20:12.675Z,999.18
2019-03-08T03:21:12.670Z,999.22
2019-03-08T03:22:12.663Z,999.14
2019-03-08T03:23:12.655Z,999.21
2019-03-08T03:24:12.649Z,999.22
2019-03-08T03:25:12.637Z,999.21
2019-03-08T03:26:12.627Z,999.17
2019-03-08T03:27:12.622Z,999.22
2019-03-08T03:28:12.623Z,999.28
2019-03-08T03:29:12.605Z,999.25
2019-03-08T03:30:12.602Z,999.30
2019-03-08T03:31:12.597Z,999.25
2019-03-08T03:32:12.586Z,999.29
2019-03-08T03:33:12.575Z,999.29
2019-03-08T03:34:12.572Z,999.33
2019-03-08T03:35:12.565Z,999.29
2019-03-08T03:36:12.551Z,999.30
2019-03-08T03:37:12.547Z,999.33
2019-03-08T03:38:12.532Z,999.30
2019-03-08T03:39:12.535Z,999.31
2019-03-08T03:40:12.520Z,999.28
2019-03-08T03:41:12.510Z,999.36
2019-03-08T03:42:12.500Z,999.31
2019-03-08T03:43:12.493Z,999.36
2019-03-08T03:44:12.486Z,999.38
2019-03-08T03:45:12.479Z,999.39
2019-03-08T03:46:12.467Z,999.42
2019-03-08T03:47:12.462Z,999.41
2019-03-08T03:48:12.461Z,999.41
2019-03-08T03:49:12.451Z,999.45
2019-03-08T03:50:12.441Z,999.42
2019-03-08T03:51:12.432Z,999.47
2019-03-08T03:52:12.428Z,999.45
2019-03-08T03:53:12.415Z,999.51
2019-03-08T03:54:12.406Z,999.55
2019-03-08T03:55:12.400Z,999.51
2019-03-08T03:56:12.389Z,999.53
2019-03-08T03:57:12.383Z,999.52
2019-03-08T03:58:12.370Z,999.56
2019-03-08T03:59:12.357Z,999.50
2019-03-08T04:00:12.363Z,999.56
2019-03-08T04:01:12.351Z,999.59
2019-03-08T04:02:12.344Z,999.60
2019-03-08T04:03:12.326Z,999.64
2019-03-08T04:04:12.320Z,999.64
2019-03-08T04:05:12.317Z,999.60
2019-03-08T04:06:12.314Z,999.63
2019-03-08T04:07:12.303Z,999.72
2019-03-08T04:08:13.153Z,999.67
2019-03-08T04:09:12.291Z,999.62
2019-03-08T04:10:12.276Z,999.64
2019-03-08T04:11:12.268Z,999.65
2019-03-08T04:12:13.152Z,999.73
2019-03-08T04:13:12.253Z,999.65
2019-03-08T04:14:12.248Z,999.72
2019-03-08T04:15:12.237Z,999.75
2019-03-08T04:16:12.236Z,999.73
2019-03-08T04:17:12.216Z,999.79
2019-03-08T04:18:12.214Z,999.78
2019-03-08T04:19:12.206Z,999.80
2019-03-08T04:20:12.203Z,999.84
2019-03-08T04:21:12.191Z,999.83
2019-03-08T04:22:12.178Z,999.82
2019-03-08T04:23:12.163Z,999.84
2019-03-08T04:24:12.167Z,999.87
2019-03-08T04:25:12.160Z,999.94
2019-03-08T04:26:12.148Z,999.92
2019-03-08T04:27:12.145Z,999.91
2019-03-08T04:28:12.132Z,999.91
2019-03-08T04:29:12.125Z,999.94
2019-03-08T04:30:12.669Z,999.95
2019-03-08T04:31:12.135Z,999.93
2019-03-08T04:32:12.116Z,999.96
2019-03-08T04:33:12.097Z,999.99
2019-03-08T04:34:12.084Z,999.93
2019-03-08T04:35:12.080Z,999.99
2019-03-08T04:36:12.076Z,1000.00
2019-03-08T04:37:12.063Z,1000.08
2019-03-08T04:38:12.054Z,1000.10
2019-03-08T04:39:12.041Z,1000.03
2019-03-08T04:40:12.035Z,1000.09
2019-03-08T04:41:12.028Z,1000.09
2019-03-08T04:42:12.016Z,1000.07
2019-03-08T04:43:12.005Z,1000.06
2019-03-08T04:44:12.002Z,1000.15
2019-03-08T04:45:11.999Z,1000.11
2019-03-08T04:46:11.989Z,1000.14
2019-03-08T04:47:12.002Z,1000.13
2019-03-08T04:48:11.975Z,1000.17
2019-03-08T04:49:11.969Z,1000.13
2019-03-08T04:50:11.963Z,1000.17
2019-03-08T04:51:11.943Z,1000.18
2019-03-08T04:52:11.941Z,1000.15
2019-03-08T04:53:11.927Z,1000.21
2019-03-08T04:54:11.922Z,1000.17
2019-03-08T04:55:11.916Z,1000.28
2019-03-08T04:56:11.905Z,1000.24
2019-03-08T04:57:11.903Z,1000.28
2019-03-08T05:00:05.012Z,1000.37
2019-03-08T05:00:44.374Z,1000.37
2019-03-08T05:01:43.976Z,1000.40
2019-03-08T05:02:43.967Z,1000.46
2019-03-08T05:03:43.963Z,1000.44
2019-03-08T05:04:43.949Z,1000.45
2019-03-08T05:05:43.941Z,1000.47
2019-03-08T05:06:43.928Z,1000.51
2019-03-08T05:07:43.948Z,1000.49
2019-03-08T05:08:45.738Z,1000.46
2019-03-08T05:09:43.915Z,1000.47
2019-03-08T05:10:43.906Z,1000.53
2019-03-08T05:11:43.891Z,1000.49
2019-03-08T05:12:43.881Z,1000.54
2019-03-08T05:13:43.873Z,1000.58
2019-03-08T05:14:43.870Z,1000.56
2019-03-08T05:15:43.861Z,1000.58
2019-03-08T05:16:43.859Z,1000.64
2019-03-08T05:17:43.847Z,1000.63
2019-03-08T05:18:43.834Z,1000.64
2019-03-08T05:19:43.827Z,1000.66
2019-03-08T05:20:43.813Z,1000.67
2019-03-08T05:21:43.839Z,1000.72
2019-03-08T05:22:43.804Z,1000.69
2019-03-08T05:23:43.795Z,1000.75
2019-03-08T05:24:43.804Z,1000.75
2019-03-08T05:25:43.773Z,1000.79
2019-03-08T05:26:43.769Z,1000.78
2019-03-08T05:27:43.763Z,1000.83
2019-03-08T05:28:43.752Z,1000.85
2019-03-08T05:29:43.740Z,1000.83
2019-03-08T05:30:43.735Z,1000.84
2019-03-08T05:31:43.736Z,1000.92
2019-03-08T05:32:43.735Z,1000.88
2019-03-08T05:33:43.718Z,1001.00
2019-03-08T05:34:43.710Z,1001.00
2019-03-08T05:35:43.708Z,1001.00
2019-03-08T05:36:43.689Z,1001.00
2019-03-08T05:37:43.675Z,1001.09
2019-03-08T05:38:43.667Z,1001.05
2019-03-08T05:39:43.681Z,1001.09
2019-03-08T05:40:43.670Z,1001.10
2019-03-08T05:41:43.650Z,1001.16
2019-03-08T05:42:43.649Z,1001.19
2019-03-08T05:43:43.635Z,1001.27
2019-03-08T05:44:43.626Z,1001.35
2019-03-08T05:45:43.625Z,1001.38
2019-03-08T05:46:47.484Z,1001.38
2019-03-08T05:47:43.603Z,1001.43
2019-03-08T05:48:43.588Z,1001.50
2019-03-08T05:49:44.588Z,1001.52
2019-03-08T05:50:43.570Z,1001.58
2019-03-08T05:51:43.562Z,1001.63
2019-03-08T05:52:43.557Z,1001.66
2019-03-08T05:53:43.572Z,1001.69
2019-03-08T05:54:43.544Z,1001.59
2019-03-08T05:55:44.070Z,1001.67
2019-03-08T05:56:43.529Z,1001.73
2019-03-08T05:57:43.518Z,1001.76
2019-03-08T05:58:43.524Z,1001.82
2019-03-08T05:59:45.423Z,1001.81
2019-03-08T06:00:43.492Z,1001.88
2019-03-08T06:01:43.487Z,1001.96
2019-03-08T06:02:43.476Z,1001.99
2019-03-08T06:03:43.463Z,1002.08
2019-03-08T06:04:43.460Z,1002.05
2019-03-08T06:05:43.451Z,1002.09
2019-03-08T06:06:43.444Z,1002.07
2019-03-08T06:07:43.429Z,1002.14
2019-03-08T06:08:43.428Z,1002.17
2019-03-08T06:09:43.408Z,1002.22
2019-03-08T06:10:43.408Z,1002.28
2019-03-08T06:11:43.396Z,1002.23
2019-03-08T06:12:43.390Z,1002.25
2019-03-08T06:13:43.375Z,1002.29
2019-03-08T06:14:43.376Z,1002.28
2019-03-08T06:15:43.357Z,1002.34
2019-03-08T06:16:43.361Z,1002.35
2019-03-08T06:17:43.342Z,1002.37
2019-03-08T06:18:43.341Z,1002.38
2019-03-08T06:19:43.328Z,1002.42
2019-03-08T06:20:43.320Z,1002.43
2019-03-08T06:21:43.309Z,1002.45
2019-03-08T06:22:43.299Z,1002.46
2019-03-08T06:23:43.299Z,1002.42
2019-03-08T06:24:43.287Z,1002.47
2019-03-08T06:25:43.279Z,1002.52
2019-03-08T06:26:43.271Z,1002.59
2019-03-08T06:27:43.256Z,1002.53
2019-03-08T06:28:43.251Z,1002.61
2019-03-08T06:29:43.238Z,1002.61
2019-03-08T06:30:43.238Z,1002.62
2019-03-08T06:31:43.226Z,1002.66
2019-03-08T06:32:43.211Z,1002.68
2019-03-08T06:33:43.209Z,1002.73
2019-03-08T06:34:43.198Z,1002.74
2019-03-08T06:35:43.185Z,1002.80
2019-03-08T06:36:43.179Z,1002.76
2019-03-08T06:37:43.171Z,1002.81
2019-03-08T06:38:43.164Z,1002.86
2019-03-08T06:39:43.146Z,1002.86
2019-03-08T06:40:43.137Z,1002.89
2019-03-08T06:41:43.133Z,1002.90
2019-03-08T06:42:43.128Z,1002.94
2019-03-08T06:43:43.111Z,1002.98
2019-03-08T06:44:43.110Z,1002.97
2019-03-08T06:45:43.102Z,1002.93
2019-03-08T06:46:43.088Z,1002.97
2019-03-08T06:47:43.077Z,1003.03
2019-03-08T06:48:43.075Z,1003.05
2019-03-08T06:49:43.072Z,1003.04
2019-03-08T06:50:43.060Z,1003.08
2019-03-08T06:51:43.063Z,1003.09
2019-03-08T06:52:43.033Z,1003.06
2019-03-08T06:53:43.031Z,1003.09
2019-03-08T06:54:43.015Z,1003.16
2019-03-08T06:55:43.024Z,1003.16
2019-03-08T06:56:43.004Z,1003.22
2019-03-08T06:57:43.003Z,1003.25
2019-03-08T06:58:42.982Z,1003.28
2019-03-08T06:59:42.977Z,1003.28
2019-03-08T07:00:42.974Z,1003.37
2019-03-08T07:01:42.954Z,1003.35
2019-03-08T07:02:43.046Z,1003.36
2019-03-08T07:03:42.941Z,1003.34
2019-03-08T07:04:42.931Z,1003.37
2019-03-08T07:05:42.929Z,1003.41
2019-03-08T07:06:42.907Z,1003.47
2019-03-08T07:07:42.919Z,1003.51
2019-03-08T07:08:42.903Z,1003.56
2019-03-08T07:09:43.593Z,1003.52
2019-03-08T07:10:42.885Z,1003.54
2019-03-08T07:11:42.988Z,1003.58
2019-03-08T07:12:42.860Z,1003.60
2019-03-08T07:13:42.858Z,1003.64
2019-03-08T07:14:42.847Z,1003.71
2019-03-08T07:15:42.838Z,1003.73
2019-03-08T07:16:42.840Z,1003.71
2019-03-08T07:17:42.840Z,1003.79
2019-03-08T07:18:42.811Z,1003.78
2019-03-08T07:19:42.810Z,1003.83
2019-03-08T07:20:42.797Z,1003.92
2019-03-08T07:21:42.784Z,1003.95
2019-03-08T07:22:42.775Z,1003.95
2019-03-08T07:23:42.770Z,1004.00
2019-03-08T07:24:42.756Z,1004.00
2019-03-08T07:25:51.198Z,1004.00
2019-03-08T07:26:42.742Z,1004.13
2019-03-08T07:27:42.733Z,1004.13
2019-03-08T07:28:42.733Z,1004.17
2019-03-08T07:29:42.716Z,1004.22
2019-03-08T07:30:42.716Z,1004.21
2019-03-08T07:31:42.709Z,1004.28
2019-03-08T07:32:42.685Z,1004.36
2019-03-08T07:33:42.695Z,1004.37
2019-03-08T07:34:42.685Z,1004.40
2019-03-08T07:35:42.667Z,1004.46
2019-03-08T07:36:42.647Z,1004.50
2019-03-08T07:37:42.645Z,1004.55
2019-03-08T07:38:42.626Z,1004.54
2019-03-08T07:39:42.630Z,1004.61
2019-03-08T07:40:42.617Z,1004.64
2019-03-08T07:41:42.622Z,1004.59
2019-03-08T07:42:42.603Z,1004.72
2019-03-08T07:43:42.594Z,1004.79
2019-03-08T07:44:42.582Z,1004.76
2019-03-08T07:45:44.247Z,1004.81
2019-03-08T07:46:42.564Z,1004.85
2019-03-08T07:47:43.123Z,1004.83
2019-03-08T07:48:42.561Z,1004.85
2019-03-08T07:49:42.553Z,1004.92
2019-03-08T07:50:42.529Z,1004.94
2019-03-08T07:51:42.527Z,1004.95
2019-03-08T07:52:42.523Z,1004.94
2019-03-08T07:53:42.509Z,1005.00
2019-03-08T07:54:42.499Z,1005.06
2019-03-08T07:55:42.491Z,1005.09
2019-03-08T07:56:42.484Z,1005.06
2019-03-08T07:57:42.516Z,1005.06
2019-03-08T07:58:42.460Z,1005.12
2019-03-08T07:59:42.455Z,1005.04
2019-03-08T08:00:42.446Z,1005.03
2019-03-08T08:01:42.438Z,1005.05
2019-03-08T08:02:42.438Z,1005.10
2019-03-08T08:03:42.422Z,1005.04
2019-03-08T08:04:42.409Z,1005.09
2019-03-08T08:05:42.401Z,1005.11
2019-03-08T08:06:42.398Z,1005.16
2019-03-08T08:07:42.387Z,1005.12
2019-03-08T08:08:51.176Z,1005.19
2019-03-08T08:09:42.378Z,1005.18
2019-03-08T08:10:42.359Z,1005.18
2019-03-08T08:11:42.348Z,1005.26
2019-03-08T08:12:42.348Z,1005.29
2019-03-08T08:13:42.338Z,1005.32
2019-03-08T08:14:42.334Z,1005.29
2019-03-08T08:15:42.331Z,1005.33
2019-03-08T08:16:42.313Z,1005.30
2019-03-08T08:17:43.129Z,1005.35
2019-03-08T08:18:43.128Z,1005.35
2019-03-08T08:19:42.286Z,1005.38
2019-03-08T08:20:42.283Z,1005.44
2019-03-08T08:21:42.291Z,1005.48
2019-03-08T08:22:42.261Z,1005.49
2019-03-08T08:23:42.252Z,1005.53
2019-03-08T08:24:42.251Z,1005.55
2019-03-08T08:25:42.241Z,1005.52
2019-03-08T08:26:42.233Z,1005.56
2019-03-08T08:27:42.226Z,1005.60
2019-03-08T08:28:49.705Z,1005.66
2019-03-08T08:29:42.207Z,1005.62
2019-03-08T08:30:42.201Z,1005.67
2019-03-08T08:31:42.192Z,1005.70
2019-03-08T08:32:42.191Z,1005.73
2019-03-08T08:33:42.187Z,1005.74
2019-03-08T08:34:42.174Z,1005.77
2019-03-08T08:35:42.166Z,1005.80
2019-03-08T08:36:42.156Z,1005.82
2019-03-08T08:37:42.149Z,1005.82
2019-03-08T08:38:42.144Z,1005.88
2019-03-08T08:39:42.146Z,1005.88
2019-03-08T08:40:42.128Z,1005.83
2019-03-08T08:41:42.118Z,1005.88
2019-03-08T08:42:42.114Z,1005.91
2019-03-08T08:43:42.106Z,1005.93
2019-03-08T08:44:42.101Z,1005.93
2019-03-08T08:45:42.095Z,1005.98
2019-03-08T08:46:42.090Z,1006.03
2019-03-08T08:47:42.082Z,1006.02
2019-03-08T08:48:42.071Z,1006.01
2019-03-08T08:49:42.067Z,1006.08
2019-03-08T08:50:42.060Z,1006.12
2019-03-08T08:51:42.050Z,1006.13
2019-03-08T08:52:42.052Z,1006.16
2019-03-08T08:53:42.039Z,1006.17
2019-03-08T08:54:42.032Z,1006.19
2019-03-08T08:55:44.640Z,1006.21
2019-03-08T08:56:42.017Z,1006.20
2019-03-08T08:57:42.017Z,1006.24
2019-03-08T08:58:42.004Z,1006.25
2019-03-08T08:59:42.000Z,1006.26
2019-03-08T09:00:41.989Z,1006.27
2019-03-08T09:01:42.643Z,1006.27
2019-03-08T09:02:41.982Z,1006.28
2019-03-08T09:03:41.973Z,1006.31
2019-03-08T09:04:41.968Z,1006.40
2019-03-08T09:05:41.961Z,1006.44
2019-03-08T09:06:41.952Z,1006.38
2019-03-08T09:07:41.946Z,1006.41
2019-03-08T09:08:41.942Z,1006.42
2019-03-08T09:09:41.931Z,1006.40
2019-03-08T09:10:41.927Z,1006.44
2019-03-08T09:11:48.507Z,1006.44
2019-03-08T09:12:41.914Z,1006.51
2019-03-08T09:13:41.911Z,1006.52
2019-03-08T09:14:41.896Z,1006.54
2019-03-08T09:15:41.891Z,1006.55
2019-03-08T09:16:41.889Z,1006.55
2019-03-08T09:17:41.881Z,1006.54
2019-03-08T09:18:41.873Z,1006.49
2019-03-08T09:19:41.867Z,1006.53
2019-03-08T09:20:41.860Z,1006.52
2019-03-08T09:21:41.844Z,1006.56
2019-03-08T09:22:41.844Z,1006.57
2019-03-08T09:23:41.841Z,1006.65
2019-03-08T09:24:41.833Z,1006.65
2019-03-08T09:25:41.829Z,1006.65
2019-03-08T09:26:41.818Z,1006.70
2019-03-08T09:27:41.823Z,1006.75
2019-03-08T09:28:41.812Z,1006.69
2019-03-08T09:29:41.800Z,1006.65
2019-03-08T09:30:41.792Z,1006.66
2019-03-08T09:31:41.786Z,1006.71
2019-03-08T09:32:41.773Z,1006.72
2019-03-08T09:33:41.770Z,1006.75
2019-03-08T09:34:41.761Z,1006.74
2019-03-08T09:35:41.754Z,1006.77
2019-03-08T09:36:41.746Z,1006.82
2019-03-08T09:37:41.745Z,1006.86
2019-03-08T09:38:41.734Z,1006.93
2019-03-08T09:39:41.734Z,1006.87
2019-03-08T09:40:41.719Z,1006.86
2019-03-08T09:41:41.718Z,1006.90
2019-03-08T09:42:41.708Z,1006.92
2019-03-08T09:43:41.704Z,1006.92
2019-03-08T09:44:41.693Z,1006.91
2019-03-08T09:45:41.687Z,1006.95
2019-03-08T09:46:41.676Z,1006.97
2019-03-08T09:47:41.668Z,1006.99
2019-03-08T09:48:48.341Z,1007.03
2019-03-08T09:49:43.012Z,1007.08
2019-03-08T09:50:41.652Z,1007.04
2019-03-08T09:51:41.644Z,1007.08
2019-03-08T09:52:41.632Z,1007.09
2019-03-08T09:53:41.634Z,1007.13
2019-03-08T09:54:41.614Z,1007.20
2019-03-08T09:55:41.613Z,1007.21
2019-03-08T09:56:41.642Z,1007.24
2019-03-08T09:57:41.601Z,1007.23
2019-03-08T09:58:42.166Z,1007.26
2019-03-08T09:59:41.581Z,1007.29
2019-03-08T10:00:41.577Z,1007.19
2019-03-08T10:01:41.589Z,1007.27
2019-03-08T10:02:41.564Z,1007.23
2019-03-08T10:03:41.558Z,1007.28
2019-03-08T10:04:41.547Z,1007.23
2019-03-08T10:05:41.544Z,1007.27
2019-03-08T10:06:41.534Z,1007.28
2019-03-08T10:07:41.526Z,1007.31
2019-03-08T10:08:41.524Z,1007.29
2019-03-08T10:09:41.518Z,1007.30
2019-03-08T10:10:41.511Z,1007.30
2019-03-08T10:11:41.505Z,1007.32
2019-03-08T10:12:41.490Z,1007.32
2019-03-08T10:13:41.486Z,1007.35
2019-03-08T10:14:41.484Z,1007.35
2019-03-08T10:15:41.473Z,1007.43
2019-03-08T10:16:41.466Z,1007.40
2019-03-08T10:17:41.459Z,1007.37
2019-03-08T10:18:41.449Z,1007.40
2019-03-08T10:19:41.444Z,1007.42
2019-03-08T10:20:41.446Z,1007.49
2019-03-08T10:21:41.431Z,1007.48
2019-03-08T10:22:41.422Z,1007.44
2019-03-08T10:23:41.421Z,1007.43
2019-03-08T10:24:42.184Z,1007.48
2019-03-08T10:25:41.405Z,1007.52
2019-03-08T10:26:41.397Z,1007.53
2019-03-08T10:27:41.390Z,1007.52
2019-03-08T10:28:41.384Z,1007.53
2019-03-08T10:29:41.372Z,1007.53
2019-03-08T10:30:41.375Z,1007.50
2019-03-08T10:31:41.359Z,1007.48
2019-03-08T10:32:41.357Z,1007.52
2019-03-08T10:33:46.503Z,1007.57
2019-03-08T10:34:41.342Z,1007.58
2019-03-08T10:35:41.337Z,1007.67
2019-03-08T10:36:41.317Z,1007.64
2019-03-08T10:37:41.318Z,1007.68
2019-03-08T10:38:41.312Z,1007.72
2019-03-08T10:39:41.313Z,1007.70
2019-03-08T10:40:41.299Z,1007.74
2019-03-08T10:41:41.300Z,1007.72
2019-03-08T10:42:41.283Z,1007.74
2019-03-08T10:43:41.279Z,1007.79
2019-03-08T10:44:41.272Z,1007.76
2019-03-08T10:45:41.261Z,1007.77
2019-03-08T10:46:41.259Z,1007.78
2019-03-08T10:47:41.249Z,1007.84
2019-03-08T10:48:41.240Z,1007.88
2019-03-08T10:49:41.234Z,1007.97
2019-03-08T10:50:41.226Z,1007.93
2019-03-08T10:51:41.219Z,1007.96
2019-03-08T10:52:41.217Z,1008.00
2019-03-08T10:53:41.210Z,1007.89
2019-03-08T10:54:41.203Z,1008.05
2019-03-08T10:55:41.195Z,1008.08
2019-03-08T10:56:41.182Z,1008.08
2019-03-08T10:57:41.179Z,1008.03
2019-03-08T10:58:41.175Z,1008.06
2019-03-08T10:59:41.166Z,1008.10
2019-03-08T11:00:41.161Z,1008.09
2019-03-08T11:01:41.159Z,1008.07
2019-03-08T11:02:41.149Z,1008.11
2019-03-08T11:03:41.139Z,1008.07
2019-03-08T11:04:41.135Z,1008.15
2019-03-08T11:05:41.133Z,1008.05
2019-03-08T11:06:41.124Z,1008.12
2019-03-08T11:07:41.126Z,1008.11
2019-03-08T11:08:41.109Z,1008.15
2019-03-08T11:09:41.099Z,1008.07
2019-03-08T11:10:41.099Z,1008.13
2019-03-08T11:11:41.092Z,1008.09
2019-03-08T11:12:41.082Z,1008.12
2019-03-08T11:13:43.467Z,1008.16
2019-03-08T11:14:41.076Z,1008.24
2019-03-08T11:15:41.073Z,1008.18
2019-03-08T11:16:41.059Z,1008.29
2019-03-08T11:17:50.339Z,1008.27
2019-03-08T11:18:41.056Z,1008.29
2019-03-08T11:19:41.046Z,1008.27
2019-03-08T11:20:41.040Z,1008.29
2019-03-08T11:21:41.032Z,1008.30
2019-03-08T11:22:41.026Z,1008.36
2019-03-08T11:23:41.018Z,1008.33
2019-03-08T11:24:41.026Z,1008.32
2019-03-08T11:25:41.010Z,1008.38
2019-03-08T11:26:40.999Z,1008.43
2019-03-08T11:27:40.995Z,1008.39
2019-03-08T11:28:41.709Z,1008.33
2019-03-08T11:29:40.986Z,1008.34
2019-03-08T11:30:41.710Z,1008.35
2019-03-08T11:31:40.971Z,1008.41
2019-03-08T11:32:40.969Z,1008.46
2019-03-08T11:33:40.966Z,1008.45
2019-03-08T11:34:40.948Z,1008.50
2019-03-08T11:35:40.946Z,1008.55
2019-03-08T11:36:40.941Z,1008.53
2019-03-08T11:37:40.940Z,1008.54
2019-03-08T11:38:40.933Z,1008.60
2019-03-08T11:39:40.926Z,1008.62
2019-03-08T11:40:40.919Z,1008.58
2019-03-08T11:41:40.916Z,1008.56
2019-03-08T11:42:40.911Z,1008.56
2019-03-08T11:43:40.903Z,1008.54
2019-03-08T11:44:40.906Z,1008.59
2019-03-08T11:45:40.893Z,1008.60
2019-03-08T11:46:40.880Z,1008.62
2019-03-08T11:47:40.885Z,1008.64
2019-03-08T11:48:40.873Z,1008.65
2019-03-08T11:49:42.484Z,1008.56
2019-03-08T11:50:40.863Z,1008.63
2019-03-08T11:51:40.859Z,1008.56
2019-03-08T11:52:40.845Z,1008.63
2019-03-08T11:53:40.848Z,1008.56
2019-03-08T11:54:41.217Z,1008.54
2019-03-08T11:55:40.828Z,1008.52
2019-03-08T11:56:40.824Z,1008.53
2019-03-08T11:57:40.817Z,1008.54
2019-03-08T11:58:40.806Z,1008.59
2019-03-08T11:59:40.803Z,1008.56
2019-03-08T12:00:40.798Z,1008.59
2019-03-08T12:01:40.791Z,1008.60
2019-03-08T12:02:40.780Z,1008.50
2019-03-08T12:03:40.781Z,1008.54
2019-03-08T12:04:40.900Z,1008.57
2019-03-08T12:05:40.762Z,1008.61
2019-03-08T12:06:40.761Z,1008.60
2019-03-08T12:07:40.753Z,1008.61
2019-03-08T12:08:40.747Z,1008.61
2019-03-08T12:09:40.738Z,1008.58
2019-03-08T12:10:41.222Z,1008.61
2019-03-08T12:11:40.726Z,1008.57
2019-03-08T12:12:40.725Z,1008.59
2019-03-08T12:13:40.717Z,1008.60
2019-03-08T12:14:40.716Z,1008.60
2019-03-08T12:15:40.704Z,1008.55